Flight Track Log - Related Links

Times and Time Zones

All times are in EDT time to prevent confusion due to time zone crossing. See the VP-BLX flight status page for this flight to view local times or setup timezone preferences in your user account.

Time Position Orientation Groundspeed Altitude Reporting Facility
EDT Latitude Longitude Course Direction KTS MPH feet Rate Location/Type
Thu 05:26:00 AM 56.4317 37.2451 344° North  Level FlightAware Approximate
Thu 05:27:00 AM 56.5496 37.1819 344° North  Level FlightAware Approximate
Thu 05:28:00 AM 56.6676 37.1183 343° North  Level FlightAware Approximate
Thu 05:29:00 AM 56.7855 37.0543 343° North  Level FlightAware Approximate
Thu 05:30:00 AM 56.9034 36.9899 343° North  Level FlightAware Approximate
Thu 05:31:00 AM 57.0212 36.9250 343° North  Level FlightAware Approximate
Thu 05:32:00 AM 57.1390 36.8598 343° North  Level FlightAware Approximate
Thu 05:33:00 AM 57.2568 36.7941 343° North  Level FlightAware Approximate
Thu 05:34:00 AM 57.3746 36.7281 343° North  Level FlightAware Approximate
Thu 05:35:00 AM 57.4923 36.6616 343° North  Level FlightAware Approximate
Thu 05:36:00 AM 57.6099 36.5946 343° North  Level FlightAware Approximate
Thu 05:37:00 AM 57.7276 36.5273 343° North  Level FlightAware Approximate
Thu 05:38:00 AM 57.8452 36.4595 343° North  Level FlightAware Approximate
Thu 05:39:00 AM 57.9627 36.3912 343° North  Level FlightAware Approximate
Thu 05:40:00 AM 58.0432 36.3437 341° North  Level FlightAware Approximate
Thu 05:41:00 AM 58.1597 36.2687 341° North  Level FlightAware Approximate
Thu 05:42:00 AM 58.2761 36.1933 341° North  Level FlightAware Approximate
Thu 05:43:00 AM 58.3925 36.1173 341° North  Level FlightAware Approximate
Thu 05:44:00 AM 58.5089 36.0409 341° North  Level FlightAware Approximate
Thu 05:45:00 AM 58.6252 35.9639 341° North  Level FlightAware Approximate
Thu 05:46:00 AM 58.7414 35.8864 341° North  Level FlightAware Approximate
Thu 05:47:00 AM 58.8576 35.8084 341° North  Level FlightAware Approximate
Thu 05:48:00 AM 58.9738 35.7299 341° North  Level FlightAware Approximate
Thu 05:49:00 AM 59.0899 35.6509 341° North  Level FlightAware Approximate
Thu 05:50:00 AM 59.2060 35.5713 341° North  Level FlightAware Approximate
Thu 05:51:00 AM 59.3220 35.4912 341° North  Level FlightAware Approximate
Thu 05:52:00 AM 59.4379 35.4105 341° North  Level FlightAware Approximate
Thu 05:53:00 AM 59.5538 35.3293 340° North  Level FlightAware Approximate
Thu 05:54:00 AM 59.6697 35.2475 340° North  Level FlightAware Approximate
Thu 05:55:00 AM 59.7855 35.1651 340° North  Level FlightAware Approximate
Thu 05:56:00 AM 59.9011 35.0814 340° North  Level FlightAware Approximate
Thu 05:57:00 AM 60.0167 34.9972 340° North  Level FlightAware Approximate
Thu 05:58:00 AM 60.1322 34.9123 340° North  Level FlightAware Approximate
Thu 05:59:00 AM 60.2477 34.8269 340° North  Level FlightAware Approximate
Thu 06:00:00 AM 60.3631 34.7408 340° North  Level FlightAware Approximate
Thu 06:01:00 AM 60.4785 34.6542 340° North  Level FlightAware Approximate
Thu 06:02:00 AM 60.5938 34.5669 340° North  Level FlightAware Approximate
Thu 06:03:00 AM 60.7090 34.4790 340° North  Level FlightAware Approximate
Thu 06:04:00 AM 60.8242 34.3904 339° North  Level FlightAware Approximate
Thu 06:05:00 AM 60.9393 34.3013 339° North  Level FlightAware Approximate
Thu 06:06:00 AM 61.0544 34.2114 339° North  Level FlightAware Approximate
Thu 06:07:00 AM 61.1694 34.1210 339° North  Level FlightAware Approximate
Thu 06:08:00 AM 61.2843 34.0298 339° North  Level FlightAware Approximate
Thu 06:09:00 AM 61.3992 33.9380 339° North  Level FlightAware Approximate
Thu 06:10:00 AM 61.5140 33.8455 339° North  Level FlightAware Approximate
Thu 06:11:00 AM 61.6288 33.7523 339° North  Level FlightAware Approximate
Thu 06:12:00 AM 61.7435 33.6585 339° North  Level FlightAware Approximate
Thu 06:13:00 AM 61.8581 33.5639 339° North  Level FlightAware Approximate
Thu 06:14:00 AM 61.9727 33.4686 339° North  Level FlightAware Approximate
Thu 06:15:00 AM 62.0872 33.3727 339° North  Level FlightAware Approximate
Thu 06:16:00 AM 62.2016 33.2759 338° Northwest  Level FlightAware Approximate
Thu 06:17:00 AM 62.3159 33.1785 338° Northwest  Level FlightAware Approximate
Thu 06:18:00 AM 62.4302 33.0803 338° Northwest  Level FlightAware Approximate
Thu 06:19:00 AM 62.5445 32.9813 338° Northwest  Level FlightAware Approximate
Thu 06:20:00 AM 62.6586 32.8816 338° Northwest  Level FlightAware Approximate
Thu 06:21:00 AM 62.7727 32.7811 338° Northwest  Level FlightAware Approximate
Thu 06:22:00 AM 62.8867 32.6798 338° Northwest  Level FlightAware Approximate
Thu 06:23:00 AM 63.0006 32.5778 338° Northwest  Level FlightAware Approximate
Thu 06:24:00 AM 63.1145 32.4749 338° Northwest  Level FlightAware Approximate
Thu 06:25:00 AM 63.2283 32.3713 338° Northwest  Level FlightAware Approximate
Thu 06:26:00 AM 63.3420 32.2668 338° Northwest  Level FlightAware Approximate
Thu 06:27:00 AM 63.4556 32.1614 338° Northwest  Level FlightAware Approximate
Thu 06:28:00 AM 63.5692 32.0553 337° Northwest  Level FlightAware Approximate
Thu 06:29:00 AM 63.6827 31.9483 337° Northwest  Level FlightAware Approximate
Thu 06:30:00 AM 63.7961 31.8404 337° Northwest  Level FlightAware Approximate
Thu 06:31:00 AM 63.9094 31.7317 337° Northwest  Level FlightAware Approximate
Thu 06:32:00 AM 64.0226 31.6221 337° Northwest  Level FlightAware Approximate
Thu 06:33:00 AM 64.1357 31.5116 337° Northwest  Level FlightAware Approximate
Thu 06:34:00 AM 64.2488 31.4002 337° Northwest  Level FlightAware Approximate
Thu 06:35:00 AM 64.3618 31.2878 337° Northwest  Level FlightAware Approximate
Thu 06:36:00 AM 64.4747 31.1746 337° Northwest  Level FlightAware Approximate
Thu 06:37:00 AM 64.5875 31.0604 337° Northwest  Level FlightAware Approximate
Thu 06:38:00 AM 64.7002 30.9452 336° Northwest  Level FlightAware Approximate
Thu 06:39:00 AM 64.8128 30.8291 336° Northwest  Level FlightAware Approximate
Thu 06:40:00 AM 64.9254 30.7120 336° Northwest  Level FlightAware Approximate
Thu 06:41:00 AM 65.0378 30.5940 336° Northwest  Level FlightAware Approximate
Thu 06:42:00 AM 65.1502 30.4749 336° Northwest  Level FlightAware Approximate
Thu 06:43:00 AM 65.2624 30.3548 336° Northwest  Level FlightAware Approximate
Thu 06:44:00 AM 65.3746 30.2337 336° Northwest  Level FlightAware Approximate
Thu 06:45:00 AM 65.4866 30.1116 336° Northwest  Level FlightAware Approximate
Thu 06:46:00 AM 65.5986 29.9884 336° Northwest  Level FlightAware Approximate
Thu 06:47:00 AM 65.7105 29.8641 335° Northwest  Level FlightAware Approximate
Thu 06:48:00 AM 65.8222 29.7388 335° Northwest  Level FlightAware Approximate
Thu 06:49:00 AM 65.9339 29.6124 335° Northwest  Level FlightAware Approximate
Thu 06:50:00 AM 66.0454 29.4848 335° Northwest  Level FlightAware Approximate
Thu 06:51:00 AM 66.1569 29.3562 335° Northwest  Level FlightAware Approximate
Thu 06:52:00 AM 66.2682 29.2264 335° Northwest  Level FlightAware Approximate
Thu 06:53:00 AM 66.3794 29.0954 335° Northwest  Level FlightAware Approximate
Thu 06:54:00 AM 66.4905 28.9633 335° Northwest  Level FlightAware Approximate
Thu 06:55:00 AM 66.6015 28.8300 335° Northwest  Level FlightAware Approximate
Thu 06:56:00 AM 66.7124 28.6955 334° Northwest  Level FlightAware Approximate
Thu 06:57:00 AM 66.8232 28.5598 334° Northwest  Level FlightAware Approximate
Thu 06:58:00 AM 66.9339 28.4229 334° Northwest  Level FlightAware Approximate
Thu 06:59:00 AM 67.0444 28.2847 334° Northwest  Level FlightAware Approximate
Thu 07:00:00 AM 67.1548 28.1452 334° Northwest  Level FlightAware Approximate
Thu 07:01:00 AM 67.2651 28.0045 334° Northwest  Level FlightAware Approximate
Thu 07:02:00 AM 67.3753 27.8625 334° Northwest  Level FlightAware Approximate
Thu 07:03:00 AM 67.4853 27.7191 334° Northwest  Level FlightAware Approximate
Thu 07:04:00 AM 67.5952 27.5744 333° Northwest  Level FlightAware Approximate
Thu 07:05:00 AM 67.7050 27.4284 333° Northwest  Level FlightAware Approximate
Thu 07:06:00 AM 67.8147 27.2810 333° Northwest  Level FlightAware Approximate
Thu 07:07:00 AM 67.9242 27.1322 333° Northwest  Level FlightAware Approximate
Thu 07:08:00 AM 68.0336 26.9820 333° Northwest  Level FlightAware Approximate
Thu 07:09:00 AM 68.1428 26.8304 333° Northwest  Level FlightAware Approximate
Thu 07:10:00 AM 68.2519 26.6773 333° Northwest  Level FlightAware Approximate
Thu 07:11:00 AM 68.3609 26.5227 332° Northwest  Level FlightAware Approximate
Thu 07:12:00 AM 68.4697 26.3667 332° Northwest  Level FlightAware Approximate
Thu 07:13:00 AM 68.5784 26.2092 332° Northwest  Level FlightAware Approximate
Thu 07:14:00 AM 68.6869 26.0501 332° Northwest  Level FlightAware Approximate
Thu 07:15:00 AM 68.7953 25.8895 332° Northwest  Level FlightAware Approximate
Thu 07:16:00 AM 68.9035 25.7273 332° Northwest  Level FlightAware Approximate
Thu 07:17:00 AM 69.0116 25.5635 332° Northwest  Level FlightAware Approximate
Thu 07:18:00 AM 69.1195 25.3981 331° Northwest  Level FlightAware Approximate
Thu 07:19:00 AM 69.2272 25.2310 331° Northwest  Level FlightAware Approximate
Thu 07:20:00 AM 69.3348 25.0623 331° Northwest  Level FlightAware Approximate
Thu 07:21:00 AM 69.4422 24.8919 331° Northwest  Level FlightAware Approximate
Thu 07:22:00 AM 69.5495 24.7198 331° Northwest  Level FlightAware Approximate
Thu 07:23:00 AM 69.6565 24.5460 331° Northwest  Level FlightAware Approximate
Thu 07:24:00 AM 69.7634 24.3704 330° Northwest  Level FlightAware Approximate
Thu 07:25:00 AM 69.8702 24.1930 330° Northwest  Level FlightAware Approximate
Thu 07:26:00 AM 69.9767 24.0138 330° Northwest  Level FlightAware Approximate
Thu 07:27:00 AM 70.0831 23.8328 330° Northwest  Level FlightAware Approximate
Thu 07:28:00 AM 70.1892 23.6499 330° Northwest  Level FlightAware Approximate
Thu 07:29:00 AM 70.2952 23.4651 330° Northwest  Level FlightAware Approximate
Thu 07:30:00 AM 70.4010 23.2784 329° Northwest  Level FlightAware Approximate
Thu 07:31:00 AM 70.5067 23.0897 329° Northwest  Level FlightAware Approximate
Thu 07:32:00 AM 70.6121 22.8991 329° Northwest  Level FlightAware Approximate
Thu 07:33:00 AM 70.7173 22.7065 329° Northwest  Level FlightAware Approximate
Thu 07:34:00 AM 70.8223 22.5118 329° Northwest  Level FlightAware Approximate
Thu 07:35:00 AM 70.9271 22.3151 329° Northwest  Level FlightAware Approximate
Thu 07:36:00 AM 71.0317 22.1163 328° Northwest  Level FlightAware Approximate
Thu 07:37:00 AM 71.1360 21.9154 328° Northwest  Level FlightAware Approximate
Thu 07:38:00 AM 71.2402 21.7123 328° Northwest  Level FlightAware Approximate
Thu 07:39:00 AM 71.3441 21.5070 328° Northwest  Level FlightAware Approximate
Thu 07:40:00 AM 71.4478 21.2995 328° Northwest  Level FlightAware Approximate
Thu 07:41:00 AM 71.5513 21.0898 327° Northwest  Level FlightAware Approximate
Thu 07:42:00 AM 71.6545 20.8778 327° Northwest  Level FlightAware Approximate
Thu 07:43:00 AM 71.7576 20.6635 327° Northwest  Level FlightAware Approximate
Thu 07:44:00 AM 71.8603 20.4468 327° Northwest  Level FlightAware Approximate
Thu 07:45:00 AM 71.9629 20.2278 327° Northwest  Level FlightAware Approximate
Thu 07:46:00 AM 72.0651 20.0063 326° Northwest  Level FlightAware Approximate
Thu 07:47:00 AM 72.1671 19.7824 326° Northwest  Level FlightAware Approximate
Thu 07:48:00 AM 72.2689 19.5560 326° Northwest  Level FlightAware Approximate
Thu 07:49:00 AM 72.3704 19.3271 326° Northwest  Level FlightAware Approximate
Thu 07:50:00 AM 72.4716 19.0956 325° Northwest  Level FlightAware Approximate
Thu 07:51:00 AM 72.5726 18.8615 325° Northwest  Level FlightAware Approximate
Thu 07:52:00 AM 72.6733 18.6247 325° Northwest  Level FlightAware Approximate
Thu 07:53:00 AM 72.7737 18.3853 325° Northwest  Level FlightAware Approximate
Thu 07:54:00 AM 72.8738 18.1432 325° Northwest  Level FlightAware Approximate
Thu 07:55:00 AM 72.9736 17.8983 324° Northwest  Level FlightAware Approximate
Thu 07:56:00 AM 73.0732 17.6506 324° Northwest  Level FlightAware Approximate
Thu 07:57:00 AM 73.1724 17.4000 324° Northwest  Level FlightAware Approximate
Thu 07:58:00 AM 73.2713 17.1466 324° Northwest  Level FlightAware Approximate
Thu 07:59:00 AM 73.3699 16.8903 323° Northwest  Level FlightAware Approximate
Thu 08:00:00 AM 73.4682 16.6310 323° Northwest  Level FlightAware Approximate
Thu 08:01:00 AM 73.5662 16.3687 323° Northwest  Level FlightAware Approximate
Thu 08:02:00 AM 73.6638 16.1033 323° Northwest  Level FlightAware Approximate
Thu 08:03:00 AM 73.7611 15.8349 322° Northwest  Level FlightAware Approximate
Thu 08:04:00 AM 73.8581 15.5632 322° Northwest  Level FlightAware Approximate
Thu 08:05:00 AM 73.9547 15.2885 322° Northwest  Level FlightAware Approximate
Thu 08:06:00 AM 74.0509 15.0104 322° Northwest  Level FlightAware Approximate
Thu 08:07:00 AM 74.1468 14.7291 321° Northwest  Level FlightAware Approximate
Thu 08:08:00 AM 74.2424 14.4445 321° Northwest  Level FlightAware Approximate
Thu 08:09:00 AM 74.3375 14.1565 321° Northwest  Level FlightAware Approximate
Thu 08:10:00 AM 74.4323 13.8650 321° Northwest  Level FlightAware Approximate
Thu 08:11:00 AM 74.5267 13.5701 320° Northwest  Level FlightAware Approximate
Thu 08:12:00 AM 74.6207 13.2716 320° Northwest  Level FlightAware Approximate
Thu 08:13:00 AM 74.7143 12.9696 320° Northwest  Level FlightAware Approximate
Thu 08:14:00 AM 74.8074 12.6640 319° Northwest  Level FlightAware Approximate
Thu 08:15:00 AM 74.9002 12.3547 319° Northwest  Level FlightAware Approximate
Thu 08:16:00 AM 74.9925 12.0416 319° Northwest  Level FlightAware Approximate
Thu 08:17:00 AM 75.0844 11.7248 318° Northwest  Level FlightAware Approximate
Thu 08:18:00 AM 75.1759 11.4042 318° Northwest  Level FlightAware Approximate
Thu 08:19:00 AM 75.2669 11.0796 318° Northwest  Level FlightAware Approximate
Thu 08:20:00 AM 75.3575 10.7512 318° Northwest  Level FlightAware Approximate
Thu 08:21:00 AM 75.4476 10.4187 317° Northwest  Level FlightAware Approximate
Thu 08:22:00 AM 75.5372 10.0822 317° Northwest  Level FlightAware Approximate
Thu 08:23:00 AM 75.6263 9.7416 317° Northwest  Level FlightAware Approximate
Thu 08:24:00 AM 75.7150 9.3969 316° Northwest  Level FlightAware Approximate
Thu 08:25:00 AM 75.8031 9.0480 316° Northwest  Level FlightAware Approximate
Thu 08:26:00 AM 75.8907 8.6948 316° Northwest  Level FlightAware Approximate
Thu 08:27:00 AM 75.9778 8.3373 315° West  Level FlightAware Approximate
Thu 08:28:00 AM 76.0644 7.9754 315° West  Level FlightAware Approximate
Thu 08:29:00 AM 76.1504 7.6091 315° West  Level FlightAware Approximate
Thu 08:30:00 AM 76.2359 7.2383 314° West  Level FlightAware Approximate
Thu 08:31:00 AM 76.3208 6.8630 314° West  Level FlightAware Approximate
Thu 08:32:00 AM 76.4052 6.4831 313° West  Level FlightAware Approximate
Thu 08:33:00 AM 76.4889 6.0986 313° West  Level FlightAware Approximate
Thu 08:34:00 AM 76.5721 5.7094 313° West  Level FlightAware Approximate
Thu 08:35:00 AM 76.6547 5.3155 312° West  Level FlightAware Approximate
Thu 08:36:00 AM 76.7366 4.9167 312° West  Level FlightAware Approximate
Thu 08:37:00 AM 76.8180 4.5131 312° West  Level FlightAware Approximate
Thu 08:38:00 AM 76.8986 4.1046 311° West  Level FlightAware Approximate
Thu 08:39:00 AM 76.9787 3.6911 311° West  Level FlightAware Approximate
Thu 08:40:00 AM 77.0581 3.2727 310° West  Level FlightAware Approximate
Thu 08:41:00 AM 77.1367 2.8492 310° West  Level FlightAware Approximate
Thu 08:42:00 AM 77.2148 2.4206 310° West  Level FlightAware Approximate
Thu 08:43:00 AM 77.2921 1.9868 309° West  Level FlightAware Approximate
Thu 08:44:00 AM 77.3687 1.5478 309° West  Level FlightAware Approximate
Thu 08:45:00 AM 77.4445 1.1036 308° West  Level FlightAware Approximate
Thu 08:46:00 AM 77.5197 0.6541 308° West  Level FlightAware Approximate
Thu 08:47:00 AM 77.5940 0.1993 307° West  Level FlightAware Approximate
Thu 08:48:00 AM 77.6677 -0.2609 307° West  Level FlightAware Approximate
Thu 08:49:00 AM 77.7405 -0.7265 307° West  Level FlightAware Approximate
Thu 08:50:00 AM 77.8125 -1.1976 306° West  Level FlightAware Approximate
Thu 08:51:00 AM 77.8838 -1.6741 306° West  Level FlightAware Approximate
Thu 08:52:00 AM 77.9542 -2.1562 305° West  Level FlightAware Approximate
Thu 08:53:00 AM 78.0237 -2.6438 305° West  Level FlightAware Approximate
Thu 08:54:00 AM 78.0924 -3.1370 304° West  Level FlightAware Approximate
Thu 08:55:00 AM 78.1603 -3.6358 304° West  Level FlightAware Approximate
Thu 08:56:00 AM 78.2273 -4.1403 303° West  Level FlightAware Approximate
Thu 08:57:00 AM 78.2933 -4.6503 303° West  Level FlightAware Approximate
Thu 08:58:00 AM 78.3585 -5.1661 302° West  Level FlightAware Approximate
Thu 08:59:00 AM 78.4227 -5.6875 302° West  Level FlightAware Approximate
Thu 09:00:00 AM 78.4860 -6.2147 301° West  Level FlightAware Approximate
Thu 09:01:00 AM 78.5483 -6.7475 301° West  Level FlightAware Approximate
Thu 09:02:00 AM 78.6097 -7.2860 300° West  Level FlightAware Approximate
Thu 09:03:00 AM 78.6701 -7.8303 300° West  Level FlightAware Approximate
Thu 09:04:00 AM 78.7294 -8.3803 299° West  Level FlightAware Approximate
Thu 09:05:00 AM 78.7877 -8.9359 299° West  Level FlightAware Approximate
Thu 09:06:00 AM 78.8450 -9.4973 298° West  Level FlightAware Approximate
Thu 09:07:00 AM 78.9013 -10.0643 297° West  Level FlightAware Approximate
Thu 09:08:00 AM 78.9565 -10.6369 297° West  Level FlightAware Approximate
Thu 09:09:00 AM 79.0105 -11.2152 296° West  Level FlightAware Approximate
Thu 09:10:00 AM 79.0635 -11.7991 296° West  Level FlightAware Approximate
Thu 09:11:00 AM 79.1154 -12.3885 295° West  Level FlightAware Approximate
Thu 09:12:00 AM 79.1661 -12.9835 295° West  Level FlightAware Approximate
Thu 09:13:00 AM 79.2157 -13.5839 294° West  Level FlightAware Approximate
Thu 09:14:00 AM 79.2641 -14.1897 293° West  Level FlightAware Approximate
Thu 09:15:00 AM 79.3113 -14.8009 293° West  Level FlightAware Approximate
Thu 09:16:00 AM 79.3574 -15.4174 292° West  Level FlightAware Approximate
Thu 09:17:00 AM 79.4022 -16.0391 292° West  Level FlightAware Approximate
Thu 09:18:00 AM 79.4457 -16.6659 291° West  Level FlightAware Approximate
Thu 09:19:00 AM 79.4881 -17.2978 290° West  Level FlightAware Approximate
Thu 09:20:00 AM 79.5292 -17.9347 290° West  Level FlightAware Approximate
Thu 09:21:00 AM 79.5690 -18.5765 289° West  Level FlightAware Approximate
Thu 09:22:00 AM 79.6075 -19.2231 289° West  Level FlightAware Approximate
Thu 09:23:00 AM 79.6447 -19.8743 288° West  Level FlightAware Approximate
Thu 09:24:00 AM 79.6806 -20.5301 287° West  Level FlightAware Approximate
Thu 09:25:00 AM 79.7151 -21.1903 287° West  Level FlightAware Approximate
Thu 09:26:00 AM 79.7484 -21.8549 286° West  Level FlightAware Approximate
Thu 09:27:00 AM 79.7802 -22.5236 285° West  Level FlightAware Approximate
Thu 09:28:00 AM 79.8107 -23.1964 285° West  Level FlightAware Approximate
Thu 09:29:00 AM 79.8398 -23.8731 284° West  Level FlightAware Approximate
Thu 09:30:00 AM 79.8675 -24.5536 283° West  Level FlightAware Approximate
Thu 09:31:00 AM 79.8938 -25.2376 283° West  Level FlightAware Approximate
Thu 09:32:00 AM 79.9187 -25.9251 282° West  Level FlightAware Approximate
Thu 09:33:00 AM 79.9421 -26.6159 281° West  Level FlightAware Approximate
Thu 09:34:00 AM 79.9642 -27.3097 281° West  Level FlightAware Approximate
Thu 09:35:00 AM 79.9847 -28.0065 280° West  Level FlightAware Approximate
Thu 09:36:00 AM 80.0038 -28.7060 279° West  Level FlightAware Approximate
Thu 09:37:00 AM 80.0215 -29.4081 279° West  Level FlightAware Approximate
Thu 09:38:00 AM 80.0377 -30.1125 278° West  Level FlightAware Approximate
Thu 09:39:00 AM 80.0523 -30.8191 277° West  Level FlightAware Approximate
Thu 09:40:00 AM 80.0656 -31.5277 277° West  Level FlightAware Approximate
Thu 09:41:00 AM 80.0773 -32.2380 276° West  Level FlightAware Approximate
Thu 09:42:00 AM 80.0875 -32.9498 275° West  Level FlightAware Approximate
Thu 09:43:00 AM 80.0962 -33.6630 274° West  Level FlightAware Approximate
Thu 09:44:00 AM 80.1034 -34.3774 274° West  Level FlightAware Approximate
Thu 09:45:00 AM 80.1091 -35.0927 273° West  Level FlightAware Approximate
Thu 09:46:00 AM 80.1133 -35.8086 272° West  Level FlightAware Approximate
Thu 09:47:00 AM 80.1159 -36.5251 272° West  Level FlightAware Approximate
Thu 09:48:00 AM 80.1171 -37.2418 271° West  Level FlightAware Approximate
Thu 09:49:00 AM 80.1167 -37.9586 270° West  Level FlightAware Approximate
Thu 09:50:00 AM 80.1148 -38.6753 269° West  Level FlightAware Approximate
Thu 09:51:00 AM 80.1114 -39.3915 269° West  Level FlightAware Approximate
Thu 09:52:00 AM 80.1065 -40.1072 268° West  Level FlightAware Approximate
Thu 09:53:00 AM 80.1001 -40.8220 267° West  Level FlightAware Approximate
Thu 09:54:00 AM 80.0922 -41.5359 267° West  Level FlightAware Approximate
Thu 09:55:00 AM 80.0827 -42.2485 266° West  Level FlightAware Approximate
Thu 09:56:00 AM 80.0718 -42.9596 265° West  Level FlightAware Approximate
Thu 09:57:00 AM 80.0594 -43.6691 265° West  Level FlightAware Approximate
Thu 09:58:00 AM 80.0454 -44.3767 264° West  Level FlightAware Approximate
Thu 09:59:00 AM 80.0300 -45.0823 263° West  Level FlightAware Approximate
Thu 10:00:00 AM 80.0132 -45.7856 262° West  Level FlightAware Approximate
Thu 10:01:00 AM 79.9948 -46.4864 262° West  Level FlightAware Approximate
Thu 10:02:00 AM 79.9750 -47.1847 261° West  Level FlightAware Approximate
Thu 10:03:00 AM 79.9537 -47.8801 260° West  Level FlightAware Approximate
Thu 10:04:00 AM 79.9310 -48.5724 260° West  Level FlightAware Approximate
Thu 10:05:00 AM 79.9069 -49.2616 259° West  Level FlightAware Approximate
Thu 10:06:00 AM 79.8813 -49.9475 258° West  Level FlightAware Approximate
Thu 10:07:00 AM 79.8543 -50.6298 258° West  Level FlightAware Approximate
Thu 10:08:00 AM 79.8259 -51.3085 257° West  Level FlightAware Approximate
Thu 10:09:00 AM 79.7962 -51.9833 256° West  Level FlightAware Approximate
Thu 10:10:00 AM 79.7650 -52.6542 256° West  Level FlightAware Approximate
Thu 10:11:00 AM 79.7325 -53.3209 255° West  Level FlightAware Approximate
Thu 10:12:00 AM 79.6986 -53.9834 254° West  Level FlightAware Approximate
Thu 10:13:00 AM 79.6634 -54.6415 254° West  Level FlightAware Approximate
Thu 10:14:00 AM 79.6269 -55.2951 253° West  Level FlightAware Approximate
Thu 10:15:00 AM 79.5891 -55.9441 252° West  Level FlightAware Approximate
Thu 10:16:00 AM 79.5499 -56.5884 252° West  Level FlightAware Approximate
Thu 10:17:00 AM 79.5095 -57.2278 251° West  Level FlightAware Approximate
Thu 10:18:00 AM 79.4678 -57.8623 251° West  Level FlightAware Approximate
Thu 10:19:00 AM 79.4249 -58.4918 250° West  Level FlightAware Approximate
Thu 10:20:00 AM 79.3807 -59.1162 249° West  Level FlightAware Approximate
Thu 10:21:00 AM 79.3353 -59.7354 249° West  Level FlightAware Approximate
Thu 10:22:00 AM 79.2887 -60.3493 248° West  Level FlightAware Approximate
Thu 10:23:00 AM 79.2409 -60.9580 247° West  Level FlightAware Approximate
Thu 10:24:00 AM 79.1919 -61.5612 247° West  Level FlightAware Approximate
Thu 10:25:00 AM 79.1418 -62.1590 246° West  Level FlightAware Approximate
Thu 10:26:00 AM 79.0906 -62.7513 246° West  Level FlightAware Approximate
Thu 10:27:00 AM 79.0381 -63.3381 245° Southwest  Level FlightAware Approximate
Thu 10:28:00 AM 78.9846 -63.9193 245° Southwest  Level FlightAware Approximate
Thu 10:29:00 AM 78.9300 -64.4949 244° Southwest  Level FlightAware Approximate
Thu 10:30:00 AM 78.8744 -65.0649 243° Southwest  Level FlightAware Approximate
Thu 10:31:00 AM 78.8176 -65.6292 243° Southwest  Level FlightAware Approximate
Thu 10:32:00 AM 78.7598 -66.1878 242° Southwest  Level FlightAware Approximate
Thu 10:33:00 AM 78.7010 -66.7407 242° Southwest  Level FlightAware Approximate
Thu 10:34:00 AM 78.6412 -67.2880 241° Southwest  Level FlightAware Approximate
Thu 10:35:00 AM 78.5803 -67.8295 241° Southwest  Level FlightAware Approximate
Thu 10:36:00 AM 78.5185 -68.3653 240° Southwest  Level FlightAware Approximate
Thu 10:37:00 AM 78.4557 -68.8954 240° Southwest  Level FlightAware Approximate
Thu 10:38:00 AM 78.3920 -69.4198 239° Southwest  Level FlightAware Approximate
Thu 10:39:00 AM 78.3273 -69.9386 239° Southwest  Level FlightAware Approximate
Thu 10:40:00 AM 78.2617 -70.4516 238° Southwest  Level FlightAware Approximate
Thu 10:41:00 AM 78.1952 -70.9590 238° Southwest  Level FlightAware Approximate
Thu 10:42:00 AM 78.1278 -71.4607 237° Southwest  Level FlightAware Approximate
Thu 10:43:00 AM 78.0596 -71.9569 237° Southwest  Level FlightAware Approximate
Thu 10:44:00 AM 77.9904 -72.4474 236° Southwest  Level FlightAware Approximate
Thu 10:45:00 AM 77.9205 -72.9324 236° Southwest  Level FlightAware Approximate
Thu 10:46:00 AM 77.8497 -73.4118 235° Southwest  Level FlightAware Approximate
Thu 10:47:00 AM 77.7781 -73.8857 235° Southwest  Level FlightAware Approximate
Thu 10:48:00 AM 77.7057 -74.3542 234° Southwest  Level FlightAware Approximate
Thu 10:49:00 AM 77.6324 -74.8172 234° Southwest  Level FlightAware Approximate
Thu 10:50:00 AM 77.5585 -75.2748 233° Southwest  Level FlightAware Approximate
Thu 10:51:00 AM 77.4837 -75.7271 233° Southwest  Level FlightAware Approximate
Thu 10:52:00 AM 77.4083 -76.1741 232° Southwest  Level FlightAware Approximate
Thu 10:53:00 AM 77.3320 -76.6158 232° Southwest  Level FlightAware Approximate
Thu 10:54:00 AM 77.2551 -77.0523 232° Southwest  Level FlightAware Approximate
Thu 10:55:00 AM 77.1775 -77.4836 231° Southwest  Level FlightAware Approximate
Thu 10:56:00 AM 77.0991 -77.9097 231° Southwest  Level FlightAware Approximate
Thu 10:57:00 AM 77.0201 -78.3308 230° Southwest  Level FlightAware Approximate
Thu 10:58:00 AM 76.9404 -78.7469 230° Southwest  Level FlightAware Approximate
Thu 10:59:00 AM 76.8601 -79.1580 229° Southwest  Level FlightAware Approximate
Thu 11:00:00 AM 76.7791 -79.5642 229° Southwest  Level FlightAware Approximate
Thu 11:01:00 AM 76.6974 -79.9654 229° Southwest  Level FlightAware Approximate
Thu 11:02:00 AM 76.6152 -80.3619 228° Southwest  Level FlightAware Approximate
Thu 11:03:00 AM 76.5323 -80.7536 228° Southwest  Level FlightAware Approximate
Thu 11:04:00 AM 76.4489 -81.1405 227° Southwest  Level FlightAware Approximate
Thu 11:05:00 AM 76.3649 -81.5229 227° Southwest  Level FlightAware Approximate
Thu 11:06:00 AM 76.2802 -81.9005 227° Southwest  Level FlightAware Approximate
Thu 11:07:00 AM 76.1950 -82.2737 226° Southwest  Level FlightAware Approximate
Thu 11:08:00 AM 76.1093 -82.6423 226° Southwest  Level FlightAware Approximate
Thu 11:09:00 AM 76.0230 -83.0065 226° Southwest  Level FlightAware Approximate
Thu 11:10:00 AM 75.9362 -83.3663 225° Southwest  Level FlightAware Approximate
Thu 11:11:00 AM 75.8488 -83.7217 225° Southwest  Level FlightAware Approximate
Thu 11:12:00 AM 75.7610 -84.0729 225° Southwest  Level FlightAware Approximate
Thu 11:13:00 AM 75.6726 -84.4198 224° Southwest  Level FlightAware Approximate
Thu 11:14:00 AM 75.5837 -84.7626 224° Southwest  Level FlightAware Approximate
Thu 11:15:00 AM 75.4910 -85.0828 221° Southwest  Level Estimated
Thu 11:16:00 AM 75.3979 -85.3988 221° Southwest  Level Estimated
Thu 11:17:00 AM 75.3045 -85.7108 220° Southwest  Level Estimated
Thu 11:18:00 AM 75.2106 -86.0190 220° Southwest  Level Estimated
Thu 11:19:00 AM 75.1163 -86.3234 220° Southwest  Level Estimated
Thu 11:20:00 AM 75.0216 -86.6240 219° Southwest  Level Estimated
Thu 11:21:00 AM 74.9266 -86.9209 219° Southwest  Level Estimated
Thu 11:22:00 AM 74.8311 -87.2142 219° Southwest  Level Estimated
Thu 11:23:00 AM 74.7353 -87.5039 219° Southwest  Level Estimated
Thu 11:24:00 AM 74.6391 -87.7900 218° Southwest  Level Estimated
Thu 11:25:00 AM 74.5425 -88.0726 218° Southwest  Level Estimated
Thu 11:26:00 AM 74.4456 -88.3519 218° Southwest  Level Estimated
Thu 11:27:00 AM 74.3484 -88.6277 217° Southwest  Level Estimated
Thu 11:28:00 AM 74.2508 -88.9003 217° Southwest  Level Estimated
Thu 11:29:00 AM 74.1528 -89.1695 217° Southwest  Level Estimated
Thu 11:30:00 AM 74.0546 -89.4355 217° Southwest  Level Estimated
Thu 11:31:00 AM 73.9560 -89.6984 216° Southwest  Level Estimated
Thu 11:32:00 AM 73.8571 -89.9581 216° Southwest  Level Estimated
Thu 11:33:00 AM 73.7579 -90.2147 216° Southwest  Level Estimated
Thu 11:34:00 AM 73.6584 -90.4683 216° Southwest  Level Estimated
Thu 11:35:00 AM 73.5586 -90.7189 215° Southwest  Level Estimated
Thu 11:36:00 AM 73.4585 -90.9665 215° Southwest  Level Estimated
Thu 11:37:00 AM 73.3581 -91.2113 215° Southwest  Level Estimated
Thu 11:38:00 AM 73.2574 -91.4532 215° Southwest  Level Estimated
Thu 11:39:00 AM 73.1564 -91.6922 214° Southwest  Level Estimated
Thu 11:40:00 AM 73.0552 -91.9285 214° Southwest  Level Estimated
Thu 11:41:00 AM 72.9537 -92.1621 214° Southwest  Level Estimated
Thu 11:42:00 AM 72.8520 -92.3930 214° Southwest  Level Estimated
Thu 11:43:00 AM 72.7499 -92.6213 214° Southwest  Level Estimated
Thu 11:44:00 AM 72.6477 -92.8469 213° Southwest  Level Estimated
Thu 11:45:00 AM 72.5451 -93.0700 213° Southwest  Level Estimated
Thu 11:46:00 AM 72.4424 -93.2905 213° Southwest  Level Estimated
Thu 11:47:00 AM 72.3393 -93.5086 213° Southwest  Level Estimated
Thu 11:48:00 AM 72.2361 -93.7242 213° Southwest  Level Estimated
Thu 11:49:00 AM 72.1326 -93.9374 212° Southwest  Level Estimated
Thu 11:50:00 AM 72.0289 -94.1482 212° Southwest  Level Estimated
Thu 11:51:00 AM 71.9250 -94.3567 212° Southwest  Level Estimated
Thu 11:52:00 AM 71.8208 -94.5628 212° Southwest  Level Estimated
Thu 11:53:00 AM 71.7164 -94.7667 212° Southwest  Level Estimated
Thu 11:54:00 AM 71.6118 -94.9684 211° Southwest  Level Estimated
Thu 11:55:00 AM 71.5070 -95.1678 211° Southwest  Level Estimated
Thu 11:56:00 AM 71.4020 -95.3651 211° Southwest  Level Estimated
Thu 11:57:00 AM 71.2968 -95.5602 211° Southwest  Level Estimated
Thu 11:58:00 AM 71.1914 -95.7532 211° Southwest  Level Estimated
Thu 11:59:00 AM 71.0858 -95.9442 210° Southwest  Level Estimated
Thu 12:00:00 PM 70.9800 -96.1331 210° Southwest  Level Estimated
Thu 12:01:00 PM 70.8740 -96.3200 210° Southwest  Level Estimated
Thu 12:02:00 PM 70.7678 -96.5049 210° Southwest  Level Estimated
Thu 12:03:00 PM 70.6615 -96.6878 210° Southwest  Level Estimated
Thu 12:04:00 PM 70.5549 -96.8689 210° Southwest  Level Estimated
Thu 12:05:00 PM 70.4482 -97.0480 209° Southwest  Level Estimated
Thu 12:06:00 PM 70.3413 -97.2253 209° Southwest  Level Estimated
Thu 12:07:00 PM 70.2343 -97.4007 209° Southwest  Level Estimated
Thu 12:08:00 PM 70.1270 -97.5743 209° Southwest  Level Estimated
Thu 12:09:00 PM 70.0196 -97.7461 209° Southwest  Level Estimated
Thu 12:10:00 PM 69.9120 -97.9161 209° Southwest  Level Estimated
Thu 12:11:00 PM 69.8043 -98.0844 208° Southwest  Level Estimated
Thu 12:12:00 PM 69.6964 -98.2510 208° Southwest  Level Estimated
Thu 12:13:00 PM 69.5884 -98.4159 208° Southwest  Level Estimated
Thu 12:14:00 PM 69.4802 -98.5791 208° Southwest  Level Estimated
Thu 12:15:00 PM 69.3719 -98.7407 208° Southwest  Level Estimated
Thu 12:16:00 PM 69.2634 -98.9007 208° Southwest  Level Estimated
Thu 12:17:00 PM 69.1547 -99.0591 207° Southwest  Level Estimated
Thu 12:18:00 PM 69.0460 -99.2159 207° Southwest  Level Estimated
Thu 12:19:00 PM 68.9370 -99.3712 207° Southwest  Level Estimated
Thu 12:20:00 PM 68.8280 -99.5249 207° Southwest  Level Estimated
Thu 12:21:00 PM 68.7188 -99.6772 207° Southwest  Level Estimated
Thu 12:22:00 PM 68.6094 -99.8279 207° Southwest  Level Estimated
Thu 12:23:00 PM 68.4999 -99.9772 207° Southwest  Level Estimated
Thu 12:24:00 PM 68.3903 -100.1251 206° Southwest  Level Estimated
Thu 12:25:00 PM 68.2806 -100.2715 206° Southwest  Level Estimated
Thu 12:26:00 PM 68.1708 -100.4165 206° Southwest  Level Estimated
Thu 12:27:00 PM 68.0608 -100.5602 206° Southwest  Level Estimated
Thu 12:28:00 PM 67.9507 -100.7025 206° Southwest  Level Estimated
Thu 12:29:00 PM 67.8404 -100.8434 206° Southwest  Level Estimated
Thu 12:30:00 PM 67.7301 -100.9830 206° Southwest  Level Estimated
Thu 12:31:00 PM 67.6196 -101.1213 205° Southwest  Level Estimated
Thu 12:32:00 PM 67.5090 -101.2583 205° Southwest  Level Estimated
Thu 12:33:00 PM 67.3983 -101.3941 205° Southwest  Level Estimated
Thu 12:34:00 PM 67.2875 -101.5285 205° Southwest  Level Estimated
Thu 12:35:00 PM 67.1766 -101.6618 205° Southwest  Level Estimated
Thu 12:36:00 PM 67.0656 -101.7938 205° Southwest  Level Estimated
Thu 12:37:00 PM 66.9544 -101.9246 205° Southwest  Level Estimated
Thu 12:38:00 PM 66.8431 -102.0543 205° Southwest  Level Estimated
Thu 12:39:00 PM 66.7318 -102.1827 205° Southwest  Level Estimated
Thu 12:40:00 PM 66.6203 -102.3100 204° Southwest  Level Estimated
Thu 12:41:00 PM 66.5088 -102.4362 204° Southwest  Level Estimated
Thu 12:42:00 PM 66.3971 -102.5612 204° Southwest  Level Estimated
Thu 12:43:00 PM 66.2854 -102.6852 204° Southwest  Level Estimated
Thu 12:44:00 PM 66.1735 -102.8080 204° Southwest  Level Estimated
Thu 12:45:00 PM 66.0615 -102.9297 204° Southwest  Level Estimated
Thu 12:46:00 PM 65.9495 -103.0504 204° Southwest  Level Estimated
Thu 12:47:00 PM 65.8374 -103.1701 204° Southwest  Level Estimated
Thu 12:48:00 PM 65.7251 -103.2887 203° Southwest  Level Estimated
Thu 12:49:00 PM 65.6128 -103.4062 203° Southwest  Level Estimated
Thu 12:50:00 PM 65.5004 -103.5228 203° Southwest  Level Estimated
Thu 12:51:00 PM 65.3879 -103.6383 203° Southwest  Level Estimated
Thu 12:52:00 PM 65.2753 -103.7529 203° Southwest  Level Estimated
Thu 12:53:00 PM 65.1626 -103.8665 203° Southwest  Level Estimated
Thu 12:54:00 PM 65.0498 -103.9791 203° Southwest  Level Estimated
Thu 12:55:00 PM 64.9370 -104.0908 203° Southwest  Level Estimated
Thu 12:56:00 PM 64.8241 -104.2015 203° Southwest  Level Estimated
Thu 12:57:00 PM 64.7110 -104.3113 203° Southwest  Level Estimated
Thu 12:58:00 PM 64.5980 -104.4202 202° Southwest  Level Estimated
Thu 12:59:00 PM 64.4848 -104.5282 202° Southwest  Level Estimated
Thu 01:00:00 PM 64.3715 -104.6353 202° Southwest  Level Estimated
Thu 01:01:00 PM 64.2582 -104.7416 202° Southwest  Level Estimated
Thu 01:02:00 PM 64.1448 -104.8469 202° Southwest  Level Estimated
Thu 01:03:00 PM 64.0313 -104.9514 202° Southwest  Level Estimated
Thu 01:04:00 PM 63.9178 -105.0551 202° Southwest  Level Estimated
Thu 01:05:00 PM 63.8041 -105.1579 202° Southwest  Level Estimated
Thu 01:06:00 PM 63.6904 -105.2599 202° Southwest  Level Estimated
Thu 01:07:00 PM 63.5766 -105.3611 202° Southwest  Level Estimated
Thu 01:08:00 PM 63.4628 -105.4615 202° Southwest  Level Estimated
Thu 01:09:00 PM 63.3489 -105.5611 201° Southwest  Level Estimated
Thu 01:10:00 PM 63.2349 -105.6598 201° Southwest  Level Estimated
Thu 01:11:00 PM 63.1209 -105.7579 201° Southwest  Level Estimated
Thu 01:12:00 PM 63.0067 -105.8551 201° Southwest  Level Estimated
Thu 01:13:00 PM 62.8926 -105.9516 201° Southwest  Level Estimated
Thu 01:14:00 PM 62.7783 -106.0473 201° Southwest  Level Estimated
Thu 01:15:00 PM 62.6640 -106.1423 201° Southwest  Level Estimated
Thu 01:16:00 PM 62.5496 -106.2366 201° Southwest  Level Estimated
Thu 01:17:00 PM 62.4352 -106.3302 201° Southwest  Level Estimated
Thu 01:18:00 PM 62.3207 -106.4230 201° Southwest  Level Estimated
Thu 01:19:00 PM 62.2061 -106.5151 201° Southwest  Level Estimated
Thu 01:20:00 PM 62.0915 -106.6066 200° South  Level Estimated
Thu 01:21:00 PM 61.9768 -106.6973 200° South  Level Estimated
Thu 01:22:00 PM 61.8621 -106.7874 200° South  Level Estimated
Thu 01:23:00 PM 61.7473 -106.8768 200° South  Level Estimated
Thu 01:24:00 PM 61.6324 -106.9655 200° South  Level Estimated
Thu 01:25:00 PM 61.5175 -107.0536 200° South  Level Estimated
Thu 01:25:57 PM 61.7333 -106.1000 200° South 460 529 36,000  Level Edmonton Center
Thu 01:26:00 PM 61.4025 -107.1410 200° South  Level Estimated
Thu 01:26:57 PM 61.6167 -106.2333 209° Southwest 460 529 36,000  Level Edmonton Center
Thu 01:27:00 PM 61.2875 -107.2278 200° South  Level Estimated
Thu 01:28:00 PM 61.1724 -107.3139 200° South  Level Estimated
Thu 01:28:57 PM 61.3833 -106.5167 210° Southwest 470 541 36,000  Level Edmonton Center
Thu 01:29:00 PM 61.0573 -107.3995 200° South  Level Estimated
Thu 01:30:00 PM 60.9421 -107.4844 200° South  Level Estimated
Thu 01:30:57 PM 61.1667 -106.7833 211° Southwest 460 529 36,000  Level Edmonton Center
Thu 01:34:57 PM 60.7000 -107.2833 208° Southwest 460 529 36,000  Level Edmonton Center
Thu 01:37:57 PM 60.3500 -107.6667 200° South 470 541 36,000  Level Edmonton Center
Thu 01:38:57 PM 60.2333 -107.8000 210° Southwest 460 529 36,000  Level Edmonton Center
Thu 01:39:57 PM 60.1333 -107.9167 210° Southwest 460 529 36,000  Level Edmonton Center
Thu 01:40:00 PM 60.1912 -107.8525 208° Southwest  Level FlightAware Approximate
Thu 01:40:57 PM 60.0000 -108.0500 207° Southwest 460 529 36,000  Level Edmonton Center
Thu 01:41:57 PM 59.8833 -108.1667 207° Southwest 470 541 36,000  Level Edmonton Center
Thu 01:42:57 PM 59.7833 -108.3000 214° Southwest 470 541 36,000  Level Edmonton Center
Thu 01:44:57 PM 59.5333 -108.5000 207° Southwest 470 541 36,000  Level Edmonton Center
Thu 01:46:57 PM 59.3167 -108.7500 199° South 460 529 36,000  Level Edmonton Center
Thu 01:47:00 PM 59.3371 -108.7248 207° Southwest  Level FlightAware Approximate
Thu 01:47:57 PM 59.1833 -108.8667 204° Southwest 460 529 36,000  Level Edmonton Center
Thu 01:53:57 PM 58.4833 -109.5000 197° South 460 529 36,000  Level Edmonton Center
Thu 01:54:00 PM 58.4798 -109.3104 198° South  Level Estimated
Thu 01:54:57 PM 58.3667 -109.6167 208° Southwest 460 529 36,000  Level Edmonton Center
Thu 01:55:57 PM 58.2500 -109.7333 208° Southwest 460 529 36,000  Level Edmonton Center
Thu 01:59:57 PM 57.7833 -110.1500 197° South 470 541 36,000  Level Edmonton Center
Thu 02:01:57 PM 57.5333 -110.3667 197° South 470 541 36,000  Level Edmonton Center
Thu 02:02:00 PM 57.5473 -109.8706 197° South  Level Estimated
Thu 02:02:00 PM 57.5425 -110.1417 197° South  Level Estimated
Thu 02:02:57 PM 57.4333 -110.4833 212° Southwest 470 541 36,000  Level Edmonton Center
Thu 02:03:00 PM 57.4305 -109.9386 197° South  Level Estimated
Thu 02:03:57 PM 57.2833 -110.5833 200° South 470 541 36,000  Level Edmonton Center
Thu 02:04:57 PM 57.1833 -110.7000 212° Southwest 470 541 36,000  Level Edmonton Center
Thu 02:05:00 PM 57.1912 -110.4778 197° South  Level Estimated
Thu 02:05:57 PM 57.0500 -110.7667 195° South 470 541 36,000  Level Edmonton Center
Thu 02:06:57 PM 56.9333 -110.8667 205° Southwest 460 529 36,000  Level Edmonton Center
Thu 02:07:57 PM 56.8333 -110.9833 213° Southwest 460 529 36,000  Level Edmonton Center
Thu 02:08:57 PM 56.7000 -111.0833 202° Southwest 460 529 36,000  Level Edmonton Center
Thu 02:09:00 PM 56.7223 -110.5948 197° South  Level Estimated
Thu 02:09:57 PM 56.6000 -111.1667 205° Southwest 460 529 36,000  Level Edmonton Center
Thu 02:10:57 PM 56.4667 -111.2833 206° Southwest 460 529 36,000  Level Edmonton Center
Thu 02:11:57 PM 56.3667 -111.3667 205° Southwest 440 506 36,000  Level Edmonton Center
Thu 02:12:57 PM 56.2333 -111.4667 203° Southwest 450 518 36,000  Level Edmonton Center
Thu 02:13:57 PM 56.1333 -111.5667 209° Southwest 460 529 36,000  Level Edmonton Center
Thu 02:15:57 PM 55.9000 -111.7667 206° Southwest 450 518 36,000  Level Edmonton Center
Thu 02:16:57 PM 55.7833 -111.8667 206° Southwest 460 529 36,000  Level Edmonton Center
Thu 02:18:57 PM 55.5500 -112.0667 206° Southwest 460 529 36,000  Level Edmonton Center
Thu 02:19:57 PM 55.4167 -112.1667 203° Southwest 460 529 36,000  Level Edmonton Center
Thu 02:20:57 PM 55.3167 -112.2333 201° Southwest 460 529 36,000  Level Edmonton Center
Thu 02:22:57 PM 55.0833 -112.4333 205° Southwest 460 529 36,000  Level Edmonton Center
Thu 02:23:57 PM 54.9500 -112.5333 203° Southwest 460 529 36,000  Level Edmonton Center
Thu 02:24:00 PM 54.9775 -112.5053 205° Southwest  Level FlightAware Approximate
Thu 02:25:57 PM 54.7167 -112.7167 204° Southwest 460 529 36,000  Level Edmonton Center
Thu 02:26:57 PM 54.6000 -112.8167 206° Southwest 460 529 36,000  Level Edmonton Center
Thu 02:30:57 PM 54.1333 -113.1833 203° Southwest 470 541 36,000  Level Edmonton Center
Thu 02:31:00 PM 54.2592 -113.0601 203° Southwest  Level FlightAware Approximate
Thu 02:31:57 PM 54.0000 -113.2667 200° South 460 529 36,000  Level Edmonton Center
Thu 02:34:57 PM 53.6500 -113.5500 205° Southwest 450 518 36,000  Level Edmonton Center
Thu 02:35:57 PM 53.5333 -113.6000 194° South 460 529 36,000  Level Edmonton Center
Thu 02:36:57 PM 53.4000 -113.7000 204° Southwest 460 529 36,000  Level Edmonton Center
Thu 02:37:57 PM 53.3000 -113.7833 206° Southwest 460 529 36,000  Level Edmonton Center
Thu 02:39:57 PM 53.0667 -113.9667 205° Southwest 460 529 36,000  Level Edmonton Center
Thu 02:40:57 PM 52.9333 -114.0500 201° Southwest 460 529 36,000  Level Edmonton Center
Thu 02:41:57 PM 52.8167 -114.1000 195° South 460 529 36,000  Level Edmonton Center
Thu 02:42:57 PM 52.6833 -114.1833 201° Southwest 460 529 36,000  Level Edmonton Center
Thu 02:45:23 PM 52.4167 -114.2833 193° South 460 529 36,000  Level Vancouver Center
Thu 02:45:57 PM 52.3167 -114.3833 211° Southwest 450 518 36,000  Level Edmonton Center
Thu 02:46:57 PM 52.2000 -114.4500 199° South 450 518 36,000  Level Edmonton Center
Thu 02:47:57 PM 52.0833 -114.5000 195° South 450 518 36,000  Level Edmonton Center
Thu 02:48:57 PM 51.9500 -114.5833 201° Southwest 450 518 36,000  Level Edmonton Center
Thu 02:49:57 PM 51.8500 -114.6333 197° South 450 518 36,000  Level Edmonton Center
Thu 02:50:57 PM 51.7167 -114.7167 201° Southwest 450 518 36,000  Level Edmonton Center
Thu 02:51:57 PM 51.6000 -114.7667 195° South 450 518 36,000  Level Edmonton Center
Thu 02:52:57 PM 51.4667 -114.8500 201° Southwest 450 518 36,000  Level Edmonton Center
Thu 02:54:57 PM 51.2500 -115.0167 206° Southwest 450 518 36,000  Level Edmonton Center
Thu 02:55:57 PM 51.1500 -115.0833 203° Southwest 450 518 36,000  Level Edmonton Center
Thu 02:56:57 PM 51.0167 -115.1500 197° South 450 518 36,000  Level Edmonton Center
Thu 02:58:23 PM 50.8667 -115.2167 196° South 470 541 36,000  Level Vancouver Center
Thu 02:59:23 PM 50.7500 -115.2833 200° South 470 541 36,000  Level Vancouver Center
Thu 02:59:57 PM 50.6667 -115.4000 222° Southwest 460 529 36,000  Level Edmonton Center
Thu 03:00:57 PM 50.5500 -115.4667 200° South 460 529 36,000  Level Edmonton Center
Thu 03:01:57 PM 50.4167 -115.5500 202° Southwest 460 529 36,000  Level Edmonton Center
Thu 03:02:57 PM 50.3167 -115.6333 208° Southwest 460 529 36,000  Level Edmonton Center
Thu 03:03:57 PM 50.1833 -115.7000 198° South 460 529 36,000  Level Edmonton Center
Thu 03:06:23 PM 49.9167 -115.8333 198° South 460 529 36,000  Level Vancouver Center
Thu 03:07:23 PM 49.8000 -115.9000 200° South 460 529 36,000  Level Vancouver Center
Thu 03:08:57 PM 49.5833 -116.0833 209° Southwest 460 529 36,000  Level Edmonton Center
Thu 03:09:57 PM 49.4833 -116.1667 208° Southwest 460 529 36,000  Level Edmonton Center
Thu 03:10:57 PM 49.3500 -116.2333 198° South 450 518 36,000  Level Edmonton Center
Thu 03:11:57 PM 49.2500 -116.3500 217° Southwest 450 518 36,000  Level Edmonton Center
Thu 03:12:57 PM 49.1500 -116.4167 204° Southwest 450 518 36,000  Level Edmonton Center
Thu 03:13:57 PM 49.0167 -116.5167 206° Southwest 450 518 36,000  Level Edmonton Center
Thu 03:15:14 PM 48.9131 -116.5528 193° South 469 540 36,000  Level Seattle Center
Thu 03:16:15 PM 48.7800 -116.5842 189° South 480 552 36,000  Level Seattle Center
Thu 03:17:16 PM 48.6458 -116.6139 188° South 485 558 36,000  Level Seattle Center
Thu 03:18:18 PM 48.5122 -116.6461 189° South 485 558 36,000  Level Seattle Center
Thu 03:19:59 PM 48.2714 -116.7006 189° South 486 559 36,000  Level Salt Lake Center
Thu 03:21:01 PM 48.1378 -116.7317 189° South 486 559 36,000  Level Salt Lake Center
Thu 03:22:03 PM 48.0056 -116.7614 189° South 486 559 36,000  Level Salt Lake Center
Thu 03:23:05 PM 47.8728 -116.7928 189° South 486 559 36,000  Level Salt Lake Center
Thu 03:24:07 PM 47.7119 -116.8278 188° South 487 560 36,000  Level Salt Lake Center
Thu 03:25:08 PM 47.5792 -116.8556 188° South 487 560 36,000  Level Salt Lake Center
Thu 03:26:10 PM 47.4469 -116.8872 189° South 486 559 36,000  Level Salt Lake Center
Thu 03:27:12 PM 47.3139 -116.9164 188° South 486 559 36,000  Level Salt Lake Center
Thu 03:28:14 PM 47.1783 -116.9461 188° South 488 562 36,000  Level Salt Lake Center
Thu 03:29:16 PM 47.0436 -116.9764 189° South 491 565 36,000  Level Salt Lake Center
Thu 03:35:35 PM 46.1591 -117.1629 189° South 495 570 36,000  Level FlightAware ADS-B
Thu 03:36:05 PM 46.0900 -117.1775 189° South 495 570 36,000  Level FlightAware ADS-B
Thu 03:36:34 PM 46.0254 -117.1910 189° South 495 570 36,000  Level FlightAware ADS-B
Thu 03:37:05 PM 45.9531 -117.2062 189° South 494 568 36,000  Level FlightAware ADS-B
Thu 03:37:35 PM 45.8933 -117.2186 189° South 493 567 36,000  Level FlightAware ADS-B
Thu 03:38:05 PM 45.8182 -117.2342 189° South 493 567 36,000  Level FlightAware ADS-B
Thu 03:38:35 PM 45.7518 -117.2480 189° South 494 568 36,000  Level FlightAware ADS-B
Thu 03:39:05 PM 45.6852 -117.2617 189° South 495 570 36,000  Level FlightAware ADS-B
Thu 03:39:34 PM 45.6205 -117.2751 189° South 495 570 36,000  Level FlightAware ADS-B
Thu 03:40:05 PM 45.5550 -117.2886 189° South 494 568 36,000  Level FlightAware ADS-B
Thu 03:40:31 PM 45.4923 -117.3016 189° South 494 568 36,000  Level FlightAware ADS-B
Thu 03:41:06 PM 45.4115 -117.3181 189° South 492 566 36,000  Level FlightAware ADS-B
Thu 03:41:35 PM 45.3446 -117.3318 189° South 492 566 36,000  Level FlightAware ADS-B
Thu 03:42:05 PM 45.2789 -117.3452 189° South 492 566 36,000  Level FlightAware ADS-B
Thu 03:42:36 PM 45.2080 -117.3596 189° South 491 565 36,000  Level FlightAware ADS-B
Thu 03:43:05 PM 45.1430 -117.3728 189° South 489 563 36,000  Level FlightAware ADS-B
Thu 03:43:35 PM 45.0748 -117.3866 189° South 487 560 36,000  Level FlightAware ADS-B
Thu 03:44:05 PM 45.0116 -117.3994 189° South 485 558 36,000  Level FlightAware ADS-B
Thu 03:44:35 PM 44.9439 -117.4130 189° South 484 557 36,000  Level FlightAware ADS-B
Thu 03:45:05 PM 44.8764 -117.4266 189° South 483 556 36,000  Level FlightAware ADS-B
Thu 03:45:35 PM 44.8090 -117.4402 189° South 481 554 36,000  Level FlightAware ADS-B
Thu 03:46:35 PM 44.6781 -117.4663 189° South 479 551 36,000  Level FlightAware ADS-B
Thu 03:47:05 PM 44.6118 -117.4795 189° South 477 549 36,000  Level FlightAware ADS-B
Thu 03:47:35 PM 44.5456 -117.4927 189° South 477 549 36,000  Level FlightAware ADS-B
Thu 03:48:06 PM 44.4804 -117.5056 189° South 477 549 36,000  Level FlightAware ADS-B
Thu 03:48:35 PM 44.4160 -117.5184 189° South 478 550 36,000  Level FlightAware ADS-B
Thu 03:49:05 PM 44.3500 -117.5314 189° South 479 551 36,000  Level FlightAware ADS-B
Thu 03:49:35 PM 44.2843 -117.5444 189° South 481 554 36,000  Level FlightAware ADS-B
Thu 03:50:05 PM 44.2151 -117.5580 189° South 481 554 36,000  Level FlightAware ADS-B
Thu 03:50:34 PM 44.1516 -117.5704 189° South 481 554 36,000  Level FlightAware ADS-B
Thu 03:51:05 PM 44.0858 -117.5833 189° South 481 554 36,000  Level FlightAware ADS-B
Thu 03:51:33 PM 44.0226 -117.5956 189° South 479 551 36,000  Level FlightAware ADS-B
Thu 03:52:05 PM 43.9520 -117.6094 189° South 478 550 36,000  Level FlightAware ADS-B
Thu 03:52:35 PM 43.8884 -117.6217 189° South 479 551 36,000  Level FlightAware ADS-B
Thu 03:53:05 PM 43.8206 -117.6348 189° South 479 551 36,000  Level FlightAware ADS-B
Thu 03:53:35 PM 43.7555 -117.6474 188° South 478 550 36,000  Level FlightAware ADS-B
Thu 03:54:05 PM 43.6889 -117.6602 188° South 475 547 36,000  Level FlightAware ADS-B
Thu 03:54:35 PM 43.6236 -117.6728 189° South 473 544 36,000  Level FlightAware ADS-B
Thu 03:55:05 PM 43.5602 -117.6850 188° South 474 545 36,000  Level FlightAware ADS-B
Thu 03:55:35 PM 43.4944 -117.6976 188° South 474 545 36,000  Level FlightAware ADS-B
Thu 03:56:05 PM 43.4374 -117.7086 188° South 475 547 36,000  Level FlightAware ADS-B
Thu 03:56:28 PM 43.3780 -117.7199 188° South 475 547 36,000  Level FlightAware ADS-B
Thu 03:57:36 PM 43.2312 -117.7478 188° South 477 549 36,000  Level FlightAware ADS-B
Thu 03:58:05 PM 43.1695 -117.7595 188° South 476 548 36,000  Level FlightAware ADS-B
Thu 03:58:36 PM 43.1014 -117.7725 188° South 475 547 36,000  Level FlightAware ADS-B
Thu 03:59:05 PM 43.0958 -117.7736 188° South 475 547 36,000  Level FlightAware ADS-B
Thu 03:59:35 PM 42.9724 -117.7968 188° South 474 545 36,000  Level FlightAware ADS-B
Thu 04:00:03 PM 42.9210 -117.8065 188° South 473 544 36,000  Level FlightAware ADS-B
Thu 04:00:30 PM 42.8525 -117.8193 188° South 473 544 36,000  Level FlightAware ADS-B
Thu 04:01:45 PM 42.6904 -117.8497 188° South 472 543 36,000  Level FlightAware ADS-B
Thu 04:02:20 PM 42.6147 -117.8680 194° South 467 537 36,000  Level FlightAware ADS-B
Thu 04:03:00 PM 42.5340 -117.9029 202° Southwest 460 529 36,000  Level FlightAware ADS-B
Thu 04:03:40 PM 42.4559 -117.9505 205° Southwest 459 528 36,000  Level FlightAware ADS-B
Thu 04:04:10 PM 42.3970 -117.9869 205° Southwest 459 528 36,000  Level FlightAware ADS-B
Thu 04:04:39 PM 42.3405 -118.0216 205° Southwest 460 529 36,000  Level FlightAware ADS-B
Thu 04:05:01 PM 42.2982 -118.0473 205° Southwest 460 529 36,000  Level FlightAware ADS-B
Thu 04:05:40 PM 42.2233 -118.0928 205° Southwest 461 531 36,000  Level FlightAware ADS-B
Thu 04:06:11 PM 42.1656 -118.1279 205° Southwest 461 531 36,000  Level FlightAware ADS-B
Thu 04:06:40 PM 42.1054 -118.1644 205° Southwest 461 531 36,000  Level FlightAware ADS-B
Thu 04:07:10 PM 42.0477 -118.1992 205° Southwest 460 529 36,000  Level FlightAware ADS-B
Thu 04:07:40 PM 41.9894 -118.2343 205° Southwest 458 527 36,000  Level FlightAware ADS-B
Thu 04:08:03 PM 41.9462 -118.2603 205° Southwest 457 526 36,000  Level FlightAware ADS-B
Thu 04:08:27 PM 41.9129 -118.2804 205° Southwest 457 526 36,000  Level FlightAware ADS-B
Thu 04:09:10 PM 41.8191 -118.3367 205° Southwest 456 525 36,000  Level FlightAware ADS-B
Thu 04:09:40 PM 41.7590 -118.3727 205° Southwest 456 525 36,000  Level FlightAware ADS-B
Thu 04:10:10 PM 41.7012 -118.4073 205° Southwest 454 522 36,000  Level FlightAware ADS-B
Thu 04:10:40 PM 41.6440 -118.4414 205° Southwest 452 520 36,000  Level FlightAware ADS-B
Thu 04:10:45 PM 41.6347 -118.4469 205° Southwest 452 520 36,000  Level FlightAware ADS-B
Thu 04:12:31 PM 41.4329 -118.5666 204° Southwest 453 521 36,000  Level FlightAware ADS-B
Thu 04:12:54 PM 41.4215 -118.5733 204° Southwest 453 521 36,000  Level FlightAware ADS-B
Thu 04:13:30 PM 41.3242 -118.6319 204° Southwest 451 519 36,000  Level Salt Lake Center
Thu 04:14:31 PM 41.2203 -118.6939 204° Southwest 437 503 36,000  Level Salt Lake Center
Thu 04:15:33 PM 41.1161 -118.7536 203° Southwest 432 497 36,000  Level Salt Lake Center
Thu 04:17:36 PM 40.8903 -118.8861 204° Southwest 430 495 36,000  Level Salt Lake Center
Thu 04:18:38 PM 40.7672 -118.9556 203° Southwest 429 494 36,000  Level Salt Lake Center
Thu 04:19:00 PM 40.7943 -118.9307 204° Southwest  Level FlightAware Approximate
Thu 04:19:40 PM 40.6622 -119.0158 204° Southwest 429 494 36,000  Level Salt Lake Center
Thu 04:20:41 PM 40.5394 -119.0864 204° Southwest 430 495 36,000 -144 Level Salt Lake Center
Thu 04:26:36 PM 39.9264 -119.4352 203° Southwest 425 489 35,000 -152 Descending FlightAware ADS-B (KSAC)
Thu 04:27:17 PM 39.8524 -119.4769 203° Southwest 426 490 35,000  Level FlightAware ADS-B (KSAC)
Thu 04:28:04 PM 39.7446 -119.5373 203° Southwest 428 493 35,000  Level FlightAware ADS-B (KSAC)
Thu 04:28:44 PM 39.6743 -119.5766 203° Southwest 427 491 35,000  Level FlightAware ADS-B (KSAC)
Thu 04:29:45 PM 39.5628 -119.6301 194° South 427 491 35,000  Level FlightAware ADS-B (KSAC)
Thu 04:31:05 PM 39.4025 -119.6509 178° South 432 497 35,000  Level FlightAware ADS-B (KSAC)
Thu 04:31:43 PM 39.3295 -119.6501 179° South 429 494 35,000  Level FlightAware ADS-B (KSAC)
Thu 04:32:24 PM 39.2493 -119.6488 178° South 426 490 35,000  Level FlightAware ADS-B (KSAC)
Thu 04:33:03 PM 39.1712 -119.6467 178° South 425 489 35,000  Level FlightAware ADS-B (KSAC)
Thu 04:34:24 PM 39.0136 -119.6428 178° South 426 490 35,000  Level FlightAware ADS-B (KSAC)
Thu 04:35:43 PM 38.8554 -119.6390 178° South 431 496 35,000  Level FlightAware ADS-B (KSAC)
Thu 04:36:44 PM 38.7333 -119.6358 178° South 429 494 35,000  Level FlightAware ADS-B (KSAC)
Thu 04:37:46 PM 38.6138 -119.6327 178° South 429 494 35,000  Level FlightAware ADS-B (KSAC)
Thu 04:38:24 PM 38.5359 -119.6307 178° South 427 491 35,000  Level FlightAware ADS-B (KSAC)
Thu 04:39:03 PM 38.4594 -119.6289 178° South 429 494 35,000  Level FlightAware ADS-B (KSAC)
Thu 04:39:43 PM 38.3810 -119.6270 178° South 431 496 35,000  Level FlightAware ADS-B (KSAC)
Thu 04:40:23 PM 38.2988 -119.6249 178° South 432 497 35,000  Level FlightAware ADS-B (KSAC)
Thu 04:41:05 PM 38.2138 -119.6227 178° South 434 499 35,000  Level FlightAware ADS-B (KSAC)
Thu 04:41:45 PM 38.1346 -119.6208 178° South 434 499 35,000  Level FlightAware ADS-B (KSAC)
Thu 04:42:24 PM 38.0580 -119.6188 178° South 433 498 35,000  Level FlightAware ADS-B (KSAC)
Thu 04:43:04 PM 37.9764 -119.6168 178° South 431 496 35,000  Level FlightAware ADS-B (KSAC)
Thu 04:44:05 PM 37.8542 -119.6139 178° South 430 495 35,000  Level FlightAware ADS-B (KSAC)
Thu 04:44:45 PM 37.7761 -119.6119 178° South 430 495 35,000  Level FlightAware ADS-B (KSAC)
Thu 04:45:22 PM 37.7030 -119.6100 178° South 431 496 35,000  Level FlightAware ADS-B (KSAC)
Thu 04:46:05 PM 37.6204 -119.6080 178° South 432 497 35,000  Level FlightAware ADS-B (KSAC)
Thu 04:46:44 PM 37.5623 -119.6066 178° South 433 498 35,000  Level FlightAware ADS-B (KSAC)
Thu 04:47:25 PM 37.4689 -119.6043 178° South 429 494 35,000  Level FlightAware ADS-B (KSAC)
Thu 04:48:05 PM 37.3987 -119.6025 178° South 426 490 35,000  Level FlightAware ADS-B (KSAC)
Thu 04:48:45 PM 37.2967 -119.6001 178° South 426 490 35,000  Level FlightAware ADS-B (KSAC)
Thu 04:49:24 PM 37.2191 -119.5983 178° South 424 488 35,000  Level FlightAware ADS-B (KSAC)
Thu 04:50:02 PM 37.1431 -119.5964 178° South 423 487 35,000  Level FlightAware ADS-B (KSAC)
Thu 04:50:43 PM 37.0650 -119.5950 180° South 422 486 35,000  Level FlightAware ADS-B (KSAC)
Thu 04:51:25 PM 36.9828 -119.5972 181° South 420 483 35,000  Level FlightAware ADS-B (KSAC)
Thu 04:52:04 PM 36.9071 -119.5989 181° South 419 482 35,000  Level FlightAware ADS-B (KSAC)
Thu 04:52:49 PM 36.8306 -119.6011 181° South 420 483 35,000  Level Oakland Center
Thu 04:55:20 PM 36.5292 -119.6058 181° South 416 479 35,000  Level Los Angeles Center
Thu 04:55:54 PM 36.4608 -119.6067 181° South 416 479 35,000 -500 Level Oakland Center
Thu 04:56:56 PM 36.3450 -119.6086 181° South 416 479 34,200 -878 Descending Oakland Center
Thu 04:57:57 PM 36.2275 -119.6111 181° South 417 480 33,200 -585 Descending Oakland Center
Thu 04:58:59 PM 36.1108 -119.6125 181° South 418 481 33,000 -78 Descending Oakland Center
Thu 05:00:30 PM 35.9281 -119.6167 181° South 414 476 33,000  Level Los Angeles Center
Thu 05:01:03 PM 35.8586 -119.6189 181° South 415 478 33,000  Level Oakland Center
Thu 05:03:06 PM 35.6325 -119.6283 182° South 407 468 33,000 -78 Level Oakland Center
Thu 05:03:37 PM 35.5867 -119.6303 182° South 410 472 32,800 -1,223 Descending Los Angeles Center
Thu 05:09:14 PM 34.9520 -119.3295 148° Southeast 449 517 25,500 -1,374 Descending FlightAware ADS-B
Thu 05:10:10 PM 34.8543 -119.2553 148° Southeast 439 505 23,800 -1,706 Descending FlightAware ADS-B
Thu 05:10:56 PM 34.7819 -119.2005 148° Southeast 429 494 22,600 -1,643 Descending FlightAware ADS-B
Thu 05:11:34 PM 34.7246 -119.1574 148° Southeast 422 486 21,500 -1,714 Descending FlightAware ADS-B
Thu 05:12:13 PM 34.6530 -119.1035 148° Southeast 407 468 20,400 -1,643 Descending FlightAware ADS-B
Thu 05:12:58 PM 34.5849 -119.0522 148° Southeast 396 456 19,200 -1,636 Descending FlightAware ADS-B
Thu 05:13:41 PM 34.5127 -118.9979 148° Southeast 387 445 18,000 -1,725 Descending FlightAware ADS-B
Thu 05:14:18 PM 34.4568 -118.9560 148° Southeast 383 441 16,900 -1,756 Descending FlightAware ADS-B
Thu 05:15:03 PM 34.3886 -118.9051 149° Southeast 376 433 15,600 -1,605 Descending FlightAware ADS-B
Thu 05:15:44 PM 34.3333 -118.8723 164° South 363 418 14,600 -1,350 Descending FlightAware ADS-B
Thu 05:16:23 PM 34.2676 -118.8486 163° South 348 400 13,800 -1,380 Descending FlightAware ADS-B
Thu 05:17:24 PM 34.1716 -118.8132 163° South 339 390 12,300 -1,210 Descending FlightAware ADS-B
Thu 05:18:22 PM 34.0869 -118.7821 162° South 316 364 11,400 -835 Descending FlightAware ADS-B
Thu 05:18:43 PM 34.0611 -118.7635 151° Southeast 311 358 11,200 -878 Descending FlightAware ADS-B
Thu 05:19:03 PM 34.0470 -118.7351 110° East 305 351 10,800 -1,171 Descending FlightAware ADS-B
Thu 05:19:24 PM 34.0424 -118.7004 98° East 304 350 10,400 -1,048 Descending FlightAware ADS-B
Thu 05:20:06 PM 34.0333 -118.6328 100° East 297 342 9,700 -1,161 Descending FlightAware ADS-B
Thu 05:20:26 PM 34.0289 -118.6003 99° East 298 343 9,200 -1,135 Descending FlightAware ADS-B
Thu 05:20:43 PM 34.0257 -118.5757 99° East 296 341 9,000 -909 Descending FlightAware ADS-B
Thu 05:20:59 PM 34.0229 -118.5545 99° East 295 339 8,700 -1,304 Descending FlightAware ADS-B
Thu 05:21:29 PM 34.0155 -118.4974 97° East 294 338 8,000 -1,532 Descending FlightAware ADS-B
Thu 05:21:46 PM 34.0168 -118.4682 83° East 292 336 7,500 -1,875 Descending FlightAware ADS-B
Thu 05:22:01 PM 34.0194 -118.4457 82° East 289 333 7,000 -2,100 Descending FlightAware ADS-B
Thu 05:22:06 PM 34.0204 -118.4372 82° East 288 331 6,800 -2,400 Descending FlightAware ADS-B
Thu 05:22:26 PM 34.0232 -118.4133 82° East 285 328 6,000 -2,571 Descending FlightAware ADS-B
Thu 05:22:41 PM 34.0271 -118.3807 81° East 285 328 5,300 -2,842 Descending FlightAware ADS-B
Thu 05:22:45 PM 34.0278 -118.3750 82° East 287 330 5,100 -2,444 Descending FlightAware ADS-B
Thu 05:23:08 PM 34.0319 -118.3387 82° East 283 326 4,200 -2,160 Descending FlightAware ADS-B
Thu 05:23:10 PM 34.0323 -118.3358 81° East 286 329 4,200 -900 Level FlightAware ADS-B
Thu 05:23:28 PM 34.0352 -118.3089 83° East 262 302 3,900 -857 Descending FlightAware ADS-B
Thu 05:23:45 PM 34.0375 -118.2870 83° East 243 280 3,700 -750 Descending FlightAware ADS-B
Thu 05:24:08 PM 34.0331 -118.2561 123° Southeast 221 254 3,400 -698 Descending FlightAware ADS-B
Thu 05:24:28 PM 34.0178 -118.2443 165° South 203 234 3,200 -732 Descending FlightAware ADS-B
Thu 05:24:49 PM 33.9994 -118.2407 176° South 194 223 2,900 -875 Descending FlightAware ADS-B
Thu 05:25:16 PM 33.9793 -118.2531 81° East 286 329 2,500 -750 Descending FlightAware ADS-B
Thu 05:25:21 PM 33.9760 -118.2581 232° Southwest 192 221 2,500 -462 Level FlightAware ADS-B
Thu 05:25:29 PM 33.9716 -118.2650 233° Southwest 191 220 2,400 -1,000 Descending FlightAware ADS-B
Thu 05:25:45 PM 33.9645 -118.2794 253° West 194 223 2,100 -1,235 Descending FlightAware ADS-B
Thu 05:26:03 PM 33.9628 -118.2990 265° West 186 214 1,700 -955 Descending FlightAware ADS-B
Thu 05:26:29 PM 33.9601 -118.3227 264° West 166 191 1,400 -878 Descending FlightAware ADS-B
Thu 05:26:44 PM 33.9590 -118.3353 263° West 157 181 1,100 -947 Descending FlightAware ADS-B
Thu 05:27:07 PM 33.9568 -118.3562 263° West 157 181 800 -571 Descending FlightAware ADS-B
Thu 05:28:29 PM 33.9525 -118.4139 263° West 148 170 100 -512 Descending Los Angeles Center
Thu 05:30:00 PM 33.9425 -118.4081 228° Southwest  Level Estimated
Thu 05:37:00 PM 33.9425 -118.4081 228° Southwest  Level Estimated
Thu 05:38:00 PM 33.9425 -118.4081 239° Southwest  Level Estimated

Login

Don't have an account? Register now (free) for customized features, flight alerts, and more!